TimeHST,TemperatureF,Dew PointF,Humidity,Sea Level PressureIn,VisibilityMPH,Wind Direction,Wind SpeedMPH,Gust SpeedMPH,PrecipitationIn,Events,Conditions,WindDirDegrees,DateUTC
12:53 AM,73.0,61.0,66,29.91,10.0,East,4.6,-,N/A,,Clear,80,2014-01-27 10:53:00
1:53 AM,71.1,61.0,70,29.89,10.0,ENE,3.5,-,N/A,,Clear,70,2014-01-27 11:53:00
2:53 AM,71.1,62.1,73,29.88,10.0,ENE,4.6,-,N/A,,Clear,70,2014-01-27 12:53:00
3:53 AM,70.0,62.1,76,29.87,10.0,East,4.6,-,N/A,,Clear,80,2014-01-27 13:53:00
4:53 AM,70.0,62.1,76,29.88,10.0,East,3.5,-,N/A,,Clear,80,2014-01-27 14:53:00
5:53 AM,70.0,63.0,78,29.90,10.0,Calm,Calm,-,N/A,,Clear,0,2014-01-27 15:53:00
6:53 AM,70.0,63.0,78,29.92,10.0,Calm,Calm,-,N/A,,Clear,0,2014-01-27 16:53:00
7:53 AM,72.0,64.0,76,29.93,10.0,ESE,3.5,-,N/A,,Partly Cloudy,110,2014-01-27 17:53:00
8:53 AM,77.0,64.0,64,29.94,10.0,SSE,5.8,-,N/A,,Clear,160,2014-01-27 18:53:00
9:53 AM,79.0,64.0,60,29.95,10.0,South,9.2,-,N/A,,Clear,170,2014-01-27 19:53:00
10:53 AM,80.1,63.0,56,29.95,10.0,South,10.4,-,N/A,,Clear,190,2014-01-27 20:53:00
11:53 AM,80.1,64.0,58,29.94,10.0,SSW,9.2,-,N/A,,Clear,200,2014-01-27 21:53:00
12:53 PM,80.1,64.9,60,29.91,10.0,WSW,8.1,-,N/A,,Clear,240,2014-01-27 22:53:00
1:53 PM,80.1,66.0,62,29.88,10.0,WSW,8.1,-,N/A,,Clear,240,2014-01-27 23:53:00
2:53 PM,81.0,66.9,62,29.87,10.0,West,9.2,-,N/A,,Clear,260,2014-01-28 00:53:00
3:53 PM,80.1,69.1,69,29.87,10.0,NNW,13.8,-,N/A,,Partly Cloudy,340,2014-01-28 01:53:00
4:50 PM,77.0,69.8,78,29.88,10.0,NNW,18.4,-,N/A,,Mostly Cloudy,340,2014-01-28 02:50:00
4:51 PM,77.0,69.1,76,29.89,10.0,NNW,17.3,-,N/A,,Mostly Cloudy,340,2014-01-28 02:51:00
5:02 PM,77.0,69.8,78,29.89,10.0,NNW,17.3,-,N/A,,Overcast,330,2014-01-28 03:02:00
5:39 PM,75.2,68.0,78,29.89,10.0,North,16.1,-,N/A,,Overcast,350,2014-01-28 03:39:00
5:53 PM,75.0,69.1,82,29.90,10.0,North,16.1,-,N/A,,Overcast,360,2014-01-28 03:53:00
6:53 PM,75.0,66.9,76,29.92,10.0,NNE,17.3,-,N/A,,Mostly Cloudy,20,2014-01-28 04:53:00
7:53 PM,73.9,68.0,82,29.94,10.0,North,18.4,-,N/A,,Partly Cloudy,360,2014-01-28 05:53:00
8:53 PM,73.9,68.0,82,29.96,10.0,NNE,15.0,-,N/A,,Clear,20,2014-01-28 06:53:00
9:53 PM,73.9,66.9,79,29.95,10.0,North,23.0,26.5,N/A,,Clear,360,2014-01-28 07:53:00
10:53 PM,73.9,66.9,79,29.94,10.0,North,23.0,28.8,N/A,,Clear,360,2014-01-28 08:53:00
11:53 PM,73.0,66.0,79,29.96,10.0,North,25.3,33.4,N/A,,Clear,360,2014-01-28 09:53:00